Airfield :







YOU CAN JOIN US ON...

 
LOGIN :

Register | Disclaimer

   EN    FR    IT 

 









Legend :    VFR   Marginal VFR   IFR   Intensive IFR   Very Intensive IFR
Visi :
Ceiling :
>= 8 km
>= 3000ft
5 to 8 km
1000 to 3000 ft
1500m to 5 km
500 to 1000 ft
800 to 1500m
200 to 500 ft
< 800m
< 200 ft
Symbols :   Thunderstorms  Fog  Heavy snow  Heavy precipitations  Wind > 20 kt






- Airport Elevation : 121 ft
- IATA code : YBX


CYBX - Lourdes De Blanc Sablon

CURRENT METAR :
  • 250200Z 12013KT 10SM SCT031 BKN042 BKN072 12/10 A2921 RMK SC3SC2AC2 PRESFR SLP896 DENSITY ALT 600FT

EXPIRED METARs :
  • 250100Z 08017G23KT 10SM SCT042 BKN059 BKN071 14/10 A2923 RMK SC3SC2AC1 PRESFR SLP900 DENSITY ALT 800FT
  • 250000Z 09016G24KT 8SM SCT048 BKN068 BKN080 14/11 A2926 RMK SC4AC2AC1 SLP910 DENSITY ALT 800FT

TAF TAF CYBX
Valid from the 25 at 02:00 until the 25 at 14:00 UTC


250140Z 2502/2514 10020G30KT P6SM OVC040
TEMPO 2502/2505 P6SM -SHRA BKN015 OVC040
FM250500 12030G40KT 6SM -SHRA SCT006 OVC015
TEMPO 2505/2510 4SM SHRA BR BKN006 OVC015
BECMG 2506/2508 18045G55KT
FM251000 23030G40KT 6SM -RA BR SCT006 OVC012
TEMPO 2510/2514 2SM -RA BR BKN006 OVC012
BECMG 2512/2514 21025G35KT RMK NXT FCST BY 250800Z
CZUL FIR / North America



MET'MAP, your aeronautical weather chart ! - Copyright ORBIFLY December 2007 - Disclaimer

ORBIFLY MET'MAP TEAM :

Programming & Development : Alexandra Zaïnal
Original concept : Baudouin d'Aumeries
Technical & hardware support : Manuel Goepfert
Assistance : Marc-Olivier Méhu




SOURCES & CREDITS :

   NOAA